sensor_id;sensor_type;location;lat;lon;timestamp;P1;durP1;ratioP1;P2;durP2;ratioP2
69750;SDS011;57335;52.288;6.056;2024-02-15T00:00:53;25.60;;;9.40;;
69750;SDS011;57335;52.288;6.056;2024-02-15T00:03:20;22.50;;;7.97;;
69750;SDS011;57335;52.288;6.056;2024-02-15T00:05:47;22.42;;;7.15;;
69750;SDS011;57335;52.288;6.056;2024-02-15T00:08:14;23.48;;;6.75;;
69750;SDS011;57335;52.288;6.056;2024-02-15T00:10:42;19.30;;;6.72;;
69750;SDS011;57335;52.288;6.056;2024-02-15T00:13:08;19.52;;;6.47;;
69750;SDS011;57335;52.288;6.056;2024-02-15T00:15:35;20.60;;;6.40;;
69750;SDS011;57335;52.288;6.056;2024-02-15T00:18:03;20.23;;;7.00;;
69750;SDS011;57335;52.288;6.056;2024-02-15T00:20:30;21.77;;;6.57;;
69750;SDS011;57335;52.288;6.056;2024-02-15T00:23:00;20.13;;;6.57;;
69750;SDS011;57335;52.288;6.056;2024-02-15T00:25:27;21.98;;;7.80;;
69750;SDS011;57335;52.288;6.056;2024-02-15T00:27:53;19.75;;;7.55;;
69750;SDS011;57335;52.288;6.056;2024-02-15T00:30:20;22.27;;;7.13;;
69750;SDS011;57335;52.288;6.056;2024-02-15T00:32:48;21.90;;;7.97;;
69750;SDS011;57335;52.288;6.056;2024-02-15T00:35:15;23.50;;;7.57;;
69750;SDS011;57335;52.288;6.056;2024-02-15T00:37:43;27.00;;;8.15;;
69750;SDS011;57335;52.288;6.056;2024-02-15T00:40:11;21.23;;;7.25;;
69750;SDS011;57335;52.288;6.056;2024-02-15T00:42:37;22.50;;;7.57;;
69750;SDS011;57335;52.288;6.056;2024-02-15T00:45:04;24.13;;;7.72;;
69750;SDS011;57335;52.288;6.056;2024-02-15T00:47:31;26.67;;;8.57;;
69750;SDS011;57335;52.288;6.056;2024-02-15T00:49:59;24.65;;;8.00;;
69750;SDS011;57335;52.288;6.056;2024-02-15T00:52:26;21.33;;;7.38;;
69750;SDS011;57335;52.288;6.056;2024-02-15T00:54:52;22.60;;;7.75;;
69750;SDS011;57335;52.288;6.056;2024-02-15T00:57:19;21.35;;;7.55;;
69750;SDS011;57335;52.288;6.056;2024-02-15T00:59:46;23.88;;;7.28;;
69750;SDS011;57335;52.288;6.056;2024-02-15T01:02:12;20.50;;;7.88;;
69750;SDS011;57335;52.288;6.056;2024-02-15T01:04:39;22.15;;;7.40;;
69750;SDS011;57335;52.288;6.056;2024-02-15T01:07:05;20.67;;;7.82;;
69750;SDS011;57335;52.288;6.056;2024-02-15T01:09:33;20.33;;;6.85;;
69750;SDS011;57335;52.288;6.056;2024-02-15T01:11:59;20.80;;;7.75;;
69750;SDS011;57335;52.288;6.056;2024-02-15T01:14:26;17.65;;;6.72;;
69750;SDS011;57335;52.288;6.056;2024-02-15T01:16:57;20.40;;;7.35;;
69750;SDS011;57335;52.288;6.056;2024-02-15T01:19:24;19.38;;;6.55;;
69750;SDS011;57335;52.288;6.056;2024-02-15T01:21:51;16.48;;;6.70;;
69750;SDS011;57335;52.288;6.056;2024-02-15T01:24:17;20.55;;;6.80;;
69750;SDS011;57335;52.288;6.056;2024-02-15T01:26:44;17.05;;;6.82;;
69750;SDS011;57335;52.288;6.056;2024-02-15T01:29:10;19.35;;;6.63;;
69750;SDS011;57335;52.288;6.056;2024-02-15T01:31:38;18.73;;;6.68;;
69750;SDS011;57335;52.288;6.056;2024-02-15T01:34:05;18.42;;;6.68;;
69750;SDS011;57335;52.288;6.056;2024-02-15T01:36:32;21.17;;;6.80;;
69750;SDS011;57335;52.288;6.056;2024-02-15T01:38:58;17.45;;;6.65;;
69750;SDS011;57335;52.288;6.056;2024-02-15T01:41:25;19.98;;;6.68;;
69750;SDS011;57335;52.288;6.056;2024-02-15T01:43:52;18.27;;;7.05;;
69750;SDS011;57335;52.288;6.056;2024-02-15T01:46:18;18.58;;;7.22;;
69750;SDS011;57335;52.288;6.056;2024-02-15T01:48:47;19.02;;;7.07;;
69750;SDS011;57335;52.288;6.056;2024-02-15T01:51:14;21.90;;;7.35;;
69750;SDS011;57335;52.288;6.056;2024-02-15T01:53:42;18.35;;;6.53;;
69750;SDS011;57335;52.288;6.056;2024-02-15T01:56:10;18.48;;;6.18;;
69750;SDS011;57335;52.288;6.056;2024-02-15T01:58:40;17.02;;;6.13;;
69750;SDS011;57335;52.288;6.056;2024-02-15T02:01:07;19.98;;;8.10;;
69750;SDS011;57335;52.288;6.056;2024-02-15T02:03:33;21.67;;;8.43;;
69750;SDS011;57335;52.288;6.056;2024-02-15T02:06:01;22.92;;;8.07;;
69750;SDS011;57335;52.288;6.056;2024-02-15T02:08:29;20.77;;;8.90;;
69750;SDS011;57335;52.288;6.056;2024-02-15T02:10:56;25.27;;;9.45;;
69750;SDS011;57335;52.288;6.056;2024-02-15T02:13:23;26.45;;;11.48;;
69750;SDS011;57335;52.288;6.056;2024-02-15T02:15:50;26.50;;;10.68;;
69750;SDS011;57335;52.288;6.056;2024-02-15T02:18:17;31.67;;;10.70;;
69750;SDS011;57335;52.288;6.056;2024-02-15T02:20:44;26.92;;;10.80;;
69750;SDS011;57335;52.288;6.056;2024-02-15T02:23:15;28.27;;;11.30;;
69750;SDS011;57335;52.288;6.056;2024-02-15T02:25:45;22.92;;;9.13;;
69750;SDS011;57335;52.288;6.056;2024-02-15T02:28:15;30.40;;;11.18;;
69750;SDS011;57335;52.288;6.056;2024-02-15T02:30:43;28.75;;;11.40;;
69750;SDS011;57335;52.288;6.056;2024-02-15T02:33:12;32.22;;;12.45;;
69750;SDS011;57335;52.288;6.056;2024-02-15T02:35:46;30.98;;;11.73;;
69750;SDS011;57335;52.288;6.056;2024-02-15T02:38:16;31.05;;;11.93;;
69750;SDS011;57335;52.288;6.056;2024-02-15T02:40:43;30.05;;;12.55;;
69750;SDS011;57335;52.288;6.056;2024-02-15T02:43:10;25.90;;;11.35;;
69750;SDS011;57335;52.288;6.056;2024-02-15T02:45:37;28.95;;;12.38;;
69750;SDS011;57335;52.288;6.056;2024-02-15T02:48:04;29.95;;;12.80;;
69750;SDS011;57335;52.288;6.056;2024-02-15T02:50:31;26.17;;;11.25;;
69750;SDS011;57335;52.288;6.056;2024-02-15T02:52:58;29.48;;;11.82;;
69750;SDS011;57335;52.288;6.056;2024-02-15T02:55:25;28.67;;;12.40;;
69750;SDS011;57335;52.288;6.056;2024-02-15T02:57:54;28.85;;;11.77;;
69750;SDS011;57335;52.288;6.056;2024-02-15T03:00:21;23.63;;;10.68;;
69750;SDS011;57335;52.288;6.056;2024-02-15T03:02:49;29.52;;;11.00;;
69750;SDS011;57335;52.288;6.056;2024-02-15T03:05:16;28.73;;;12.15;;
69750;SDS011;57335;52.288;6.056;2024-02-15T03:07:43;23.85;;;9.27;;
69750;SDS011;57335;52.288;6.056;2024-02-15T03:10:10;25.42;;;10.48;;
69750;SDS011;57335;52.288;6.056;2024-02-15T03:12:41;27.65;;;10.55;;
69750;SDS011;57335;52.288;6.056;2024-02-15T03:15:14;25.50;;;10.07;;
69750;SDS011;57335;52.288;6.056;2024-02-15T03:17:42;28.15;;;10.50;;
69750;SDS011;57335;52.288;6.056;2024-02-15T03:20:10;22.30;;;9.60;;
69750;SDS011;57335;52.288;6.056;2024-02-15T03:22:39;27.45;;;10.80;;
69750;SDS011;57335;52.288;6.056;2024-02-15T03:25:06;19.48;;;8.27;;
69750;SDS011;57335;52.288;6.056;2024-02-15T03:27:35;23.92;;;9.52;;
69750;SDS011;57335;52.288;6.056;2024-02-15T03:30:03;24.60;;;9.85;;
69750;SDS011;57335;52.288;6.056;2024-02-15T03:32:31;22.77;;;9.48;;
69750;SDS011;57335;52.288;6.056;2024-02-15T03:34:57;27.08;;;10.38;;
69750;SDS011;57335;52.288;6.056;2024-02-15T03:37:26;24.40;;;9.82;;
69750;SDS011;57335;52.288;6.056;2024-02-15T03:39:53;24.42;;;10.50;;
69750;SDS011;57335;52.288;6.056;2024-02-15T03:42:19;22.65;;;9.27;;
69750;SDS011;57335;52.288;6.056;2024-02-15T03:44:47;19.42;;;8.43;;
69750;SDS011;57335;52.288;6.056;2024-02-15T03:47:14;22.52;;;9.68;;
69750;SDS011;57335;52.288;6.056;2024-02-15T03:49:41;23.52;;;8.70;;
69750;SDS011;57335;52.288;6.056;2024-02-15T03:52:08;22.33;;;8.73;;
69750;SDS011;57335;52.288;6.056;2024-02-15T03:54:36;20.77;;;7.88;;
69750;SDS011;57335;52.288;6.056;2024-02-15T03:57:03;20.45;;;8.35;;
69750;SDS011;57335;52.288;6.056;2024-02-15T03:59:32;17.02;;;7.95;;
69750;SDS011;57335;52.288;6.056;2024-02-15T04:02:01;23.00;;;8.23;;
69750;SDS011;57335;52.288;6.056;2024-02-15T04:04:29;19.20;;;7.43;;
69750;SDS011;57335;52.288;6.056;2024-02-15T04:06:57;21.08;;;8.25;;
69750;SDS011;57335;52.288;6.056;2024-02-15T04:09:25;21.42;;;7.40;;
69750;SDS011;57335;52.288;6.056;2024-02-15T04:11:51;15.85;;;6.68;;
69750;SDS011;57335;52.288;6.056;2024-02-15T04:14:20;21.58;;;7.05;;
69750;SDS011;57335;52.288;6.056;2024-02-15T04:16:47;16.67;;;7.22;;
69750;SDS011;57335;52.288;6.056;2024-02-15T04:19:14;17.55;;;6.45;;
69750;SDS011;57335;52.288;6.056;2024-02-15T04:21:40;20.10;;;6.45;;
69750;SDS011;57335;52.288;6.056;2024-02-15T04:24:10;15.95;;;6.60;;
69750;SDS011;57335;52.288;6.056;2024-02-15T04:26:37;19.35;;;6.82;;
69750;SDS011;57335;52.288;6.056;2024-02-15T04:29:04;13.52;;;5.32;;
69750;SDS011;57335;52.288;6.056;2024-02-15T04:31:34;17.52;;;7.20;;
69750;SDS011;57335;52.288;6.056;2024-02-15T04:34:05;22.00;;;8.23;;
69750;SDS011;57335;52.288;6.056;2024-02-15T04:36:32;18.23;;;6.90;;
69750;SDS011;57335;52.288;6.056;2024-02-15T04:39:00;18.42;;;6.72;;
69750;SDS011;57335;52.288;6.056;2024-02-15T04:41:30;20.02;;;7.25;;
69750;SDS011;57335;52.288;6.056;2024-02-15T04:43:57;17.75;;;6.45;;
69750;SDS011;57335;52.288;6.056;2024-02-15T04:46:23;17.88;;;7.05;;
69750;SDS011;57335;52.288;6.056;2024-02-15T04:48:51;17.35;;;7.28;;
69750;SDS011;57335;52.288;6.056;2024-02-15T04:51:17;19.10;;;7.18;;
69750;SDS011;57335;52.288;6.056;2024-02-15T04:53:46;22.67;;;7.00;;
69750;SDS011;57335;52.288;6.056;2024-02-15T04:56:14;19.25;;;6.53;;
69750;SDS011;57335;52.288;6.056;2024-02-15T04:58:42;18.60;;;6.85;;
69750;SDS011;57335;52.288;6.056;2024-02-15T05:01:14;17.73;;;6.22;;
69750;SDS011;57335;52.288;6.056;2024-02-15T05:03:45;19.20;;;7.28;;
69750;SDS011;57335;52.288;6.056;2024-02-15T05:06:12;16.80;;;6.88;;
69750;SDS011;57335;52.288;6.056;2024-02-15T05:08:39;21.08;;;6.80;;
69750;SDS011;57335;52.288;6.056;2024-02-15T05:11:10;17.05;;;6.82;;
69750;SDS011;57335;52.288;6.056;2024-02-15T05:13:44;18.48;;;6.35;;
69750;SDS011;57335;52.288;6.056;2024-02-15T05:16:11;21.58;;;7.30;;
69750;SDS011;57335;52.288;6.056;2024-02-15T05:18:38;20.05;;;6.95;;
69750;SDS011;57335;52.288;6.056;2024-02-15T05:21:08;21.40;;;6.63;;
69750;SDS011;57335;52.288;6.056;2024-02-15T05:23:36;18.33;;;6.68;;
69750;SDS011;57335;52.288;6.056;2024-02-15T05:26:06;19.52;;;6.35;;
69750;SDS011;57335;52.288;6.056;2024-02-15T05:28:32;18.50;;;6.63;;
69750;SDS011;57335;52.288;6.056;2024-02-15T05:31:09;17.02;;;6.20;;
69750;SDS011;57335;52.288;6.056;2024-02-15T05:33:40;16.83;;;6.18;;
69750;SDS011;57335;52.288;6.056;2024-02-15T05:36:11;16.10;;;6.10;;
69750;SDS011;57335;52.288;6.056;2024-02-15T05:38:38;20.52;;;6.28;;
69750;SDS011;57335;52.288;6.056;2024-02-15T05:41:06;16.52;;;5.78;;
69750;SDS011;57335;52.288;6.056;2024-02-15T05:43:37;15.93;;;5.50;;
69750;SDS011;57335;52.288;6.056;2024-02-15T05:46:05;19.50;;;6.15;;
69750;SDS011;57335;52.288;6.056;2024-02-15T05:48:37;14.32;;;5.47;;
69750;SDS011;57335;52.288;6.056;2024-02-15T05:51:04;14.27;;;5.03;;
69750;SDS011;57335;52.288;6.056;2024-02-15T05:53:35;16.95;;;4.95;;
69750;SDS011;57335;52.288;6.056;2024-02-15T05:56:03;17.10;;;5.35;;
69750;SDS011;57335;52.288;6.056;2024-02-15T05:58:31;7.88;;;3.38;;
69750;SDS011;57335;52.288;6.056;2024-02-15T06:00:59;10.65;;;4.35;;
69750;SDS011;57335;52.288;6.056;2024-02-15T06:03:31;11.75;;;4.03;;
69750;SDS011;57335;52.288;6.056;2024-02-15T06:06:00;13.85;;;4.93;;
69750;SDS011;57335;52.288;6.056;2024-02-15T06:08:29;12.68;;;4.85;;
69750;SDS011;57335;52.288;6.056;2024-02-15T06:10:58;15.30;;;5.65;;
69750;SDS011;57335;52.288;6.056;2024-02-15T06:13:25;11.98;;;4.65;;
69750;SDS011;57335;52.288;6.056;2024-02-15T06:15:53;12.77;;;5.15;;
69750;SDS011;57335;52.288;6.056;2024-02-15T06:18:20;12.65;;;5.53;;
69750;SDS011;57335;52.288;6.056;2024-02-15T06:20:51;14.70;;;5.25;;
69750;SDS011;57335;52.288;6.056;2024-02-15T06:23:20;15.35;;;5.78;;
69750;SDS011;57335;52.288;6.056;2024-02-15T06:25:46;12.95;;;6.38;;
69750;SDS011;57335;52.288;6.056;2024-02-15T06:28:16;15.02;;;5.70;;
69750;SDS011;57335;52.288;6.056;2024-02-15T06:31:09;14.75;;;5.25;;
69750;SDS011;57335;52.288;6.056;2024-02-15T06:33:57;10.80;;;4.47;;
69750;SDS011;57335;52.288;6.056;2024-02-15T06:36:49;11.18;;;4.63;;
69750;SDS011;57335;52.288;6.056;2024-02-15T06:39:35;10.77;;;4.13;;
69750;SDS011;57335;52.288;6.056;2024-02-15T06:42:18;11.73;;;4.55;;
69750;SDS011;57335;52.288;6.056;2024-02-15T06:44:47;11.13;;;4.10;;
69750;SDS011;57335;52.288;6.056;2024-02-15T06:47:14;13.07;;;4.93;;
69750;SDS011;57335;52.288;6.056;2024-02-15T06:49:45;13.57;;;4.82;;
69750;SDS011;57335;52.288;6.056;2024-02-15T06:52:18;11.73;;;4.50;;
69750;SDS011;57335;52.288;6.056;2024-02-15T06:54:45;11.13;;;4.55;;
69750;SDS011;57335;52.288;6.056;2024-02-15T06:57:12;13.77;;;5.22;;
69750;SDS011;57335;52.288;6.056;2024-02-15T06:59:39;11.80;;;4.50;;
69750;SDS011;57335;52.288;6.056;2024-02-15T07:02:06;9.75;;;3.53;;
69750;SDS011;57335;52.288;6.056;2024-02-15T07:04:34;13.73;;;4.90;;
69750;SDS011;57335;52.288;6.056;2024-02-15T07:07:01;9.23;;;3.88;;
69750;SDS011;57335;52.288;6.056;2024-02-15T07:09:29;16.85;;;5.60;;
69750;SDS011;57335;52.288;6.056;2024-02-15T07:11:56;11.55;;;4.15;;
69750;SDS011;57335;52.288;6.056;2024-02-15T07:14:23;11.15;;;4.38;;
69750;SDS011;57335;52.288;6.056;2024-02-15T07:16:49;10.88;;;4.30;;
69750;SDS011;57335;52.288;6.056;2024-02-15T07:19:17;11.98;;;5.30;;
69750;SDS011;57335;52.288;6.056;2024-02-15T07:21:45;12.38;;;4.43;;
69750;SDS011;57335;52.288;6.056;2024-02-15T07:24:13;11.80;;;5.18;;
69750;SDS011;57335;52.288;6.056;2024-02-15T07:26:40;14.35;;;4.40;;
69750;SDS011;57335;52.288;6.056;2024-02-15T07:29:07;14.50;;;4.75;;
69750;SDS011;57335;52.288;6.056;2024-02-15T07:31:34;11.75;;;4.82;;
69750;SDS011;57335;52.288;6.056;2024-02-15T07:34:02;11.00;;;4.85;;
69750;SDS011;57335;52.288;6.056;2024-02-15T07:36:30;12.32;;;4.80;;
69750;SDS011;57335;52.288;6.056;2024-02-15T07:38:57;15.80;;;4.47;;
69750;SDS011;57335;52.288;6.056;2024-02-15T07:41:28;11.52;;;4.63;;
69750;SDS011;57335;52.288;6.056;2024-02-15T07:43:55;15.85;;;5.95;;
69750;SDS011;57335;52.288;6.056;2024-02-15T07:46:24;16.70;;;5.18;;
69750;SDS011;57335;52.288;6.056;2024-02-15T07:48:51;11.48;;;4.47;;
69750;SDS011;57335;52.288;6.056;2024-02-15T07:51:19;11.98;;;4.38;;
69750;SDS011;57335;52.288;6.056;2024-02-15T07:53:48;14.77;;;5.30;;
69750;SDS011;57335;52.288;6.056;2024-02-15T07:56:16;14.02;;;4.95;;
69750;SDS011;57335;52.288;6.056;2024-02-15T07:58:44;10.80;;;4.10;;
69750;SDS011;57335;52.288;6.056;2024-02-15T08:01:18;9.52;;;4.28;;
69750;SDS011;57335;52.288;6.056;2024-02-15T08:03:51;10.32;;;4.35;;
69750;SDS011;57335;52.288;6.056;2024-02-15T08:06:20;12.80;;;5.28;;
69750;SDS011;57335;52.288;6.056;2024-02-15T08:08:50;13.45;;;4.88;;
69750;SDS011;57335;52.288;6.056;2024-02-15T08:11:18;10.77;;;4.40;;
69750;SDS011;57335;52.288;6.056;2024-02-15T08:13:45;12.30;;;5.30;;
69750;SDS011;57335;52.288;6.056;2024-02-15T08:16:16;11.40;;;5.25;;
69750;SDS011;57335;52.288;6.056;2024-02-15T08:18:44;11.18;;;4.97;;
69750;SDS011;57335;52.288;6.056;2024-02-15T08:21:15;28.98;;;5.88;;
69750;SDS011;57335;52.288;6.056;2024-02-15T08:23:41;10.57;;;4.50;;
69750;SDS011;57335;52.288;6.056;2024-02-15T08:26:09;12.90;;;4.75;;
69750;SDS011;57335;52.288;6.056;2024-02-15T08:28:39;10.30;;;3.67;;
69750;SDS011;57335;52.288;6.056;2024-02-15T08:31:08;10.25;;;4.22;;
69750;SDS011;57335;52.288;6.056;2024-02-15T08:33:37;12.00;;;4.70;;
69750;SDS011;57335;52.288;6.056;2024-02-15T08:36:05;14.55;;;4.28;;
69750;SDS011;57335;52.288;6.056;2024-02-15T08:38:32;11.82;;;4.55;;
69750;SDS011;57335;52.288;6.056;2024-02-15T08:41:00;11.30;;;4.93;;
69750;SDS011;57335;52.288;6.056;2024-02-15T08:43:27;13.05;;;5.25;;
69750;SDS011;57335;52.288;6.056;2024-02-15T08:45:53;10.57;;;3.58;;
69750;SDS011;57335;52.288;6.056;2024-02-15T08:48:20;14.15;;;4.45;;
69750;SDS011;57335;52.288;6.056;2024-02-15T08:50:49;10.52;;;4.00;;
69750;SDS011;57335;52.288;6.056;2024-02-15T08:53:15;10.27;;;4.15;;
69750;SDS011;57335;52.288;6.056;2024-02-15T08:55:45;8.85;;;2.55;;
69750;SDS011;57335;52.288;6.056;2024-02-15T08:58:12;9.50;;;3.55;;
69750;SDS011;57335;52.288;6.056;2024-02-15T09:00:38;7.63;;;2.60;;
69750;SDS011;57335;52.288;6.056;2024-02-15T09:03:11;7.72;;;2.95;;
69750;SDS011;57335;52.288;6.056;2024-02-15T09:05:39;9.02;;;3.75;;
69750;SDS011;57335;52.288;6.056;2024-02-15T09:08:07;11.00;;;3.58;;
69750;SDS011;57335;52.288;6.056;2024-02-15T09:10:34;8.88;;;3.53;;
69750;SDS011;57335;52.288;6.056;2024-02-15T09:13:02;9.68;;;3.80;;
69750;SDS011;57335;52.288;6.056;2024-02-15T09:15:29;11.02;;;4.22;;
69750;SDS011;57335;52.288;6.056;2024-02-15T09:17:57;9.65;;;3.03;;
69750;SDS011;57335;52.288;6.056;2024-02-15T09:20:24;8.95;;;3.20;;
69750;SDS011;57335;52.288;6.056;2024-02-15T09:22:55;8.63;;;3.63;;
69750;SDS011;57335;52.288;6.056;2024-02-15T09:25:23;9.85;;;3.55;;
69750;SDS011;57335;52.288;6.056;2024-02-15T09:27:50;8.73;;;3.22;;
69750;SDS011;57335;52.288;6.056;2024-02-15T09:30:17;11.15;;;3.47;;
69750;SDS011;57335;52.288;6.056;2024-02-15T09:32:44;9.27;;;3.30;;
69750;SDS011;57335;52.288;6.056;2024-02-15T09:35:12;8.73;;;3.38;;
69750;SDS011;57335;52.288;6.056;2024-02-15T09:37:43;9.43;;;3.38;;
69750;SDS011;57335;52.288;6.056;2024-02-15T09:40:12;7.78;;;2.65;;
69750;SDS011;57335;52.288;6.056;2024-02-15T09:42:39;6.90;;;2.42;;
69750;SDS011;57335;52.288;6.056;2024-02-15T09:45:07;5.40;;;1.80;;
69750;SDS011;57335;52.288;6.056;2024-02-15T09:47:37;4.45;;;1.88;;
69750;SDS011;57335;52.288;6.056;2024-02-15T09:50:07;5.68;;;1.83;;
69750;SDS011;57335;52.288;6.056;2024-02-15T09:52:40;4.10;;;1.50;;
69750;SDS011;57335;52.288;6.056;2024-02-15T09:55:15;3.28;;;1.30;;
69750;SDS011;57335;52.288;6.056;2024-02-15T09:57:43;4.72;;;1.45;;
69750;SDS011;57335;52.288;6.056;2024-02-15T10:00:12;3.75;;;1.20;;
69750;SDS011;57335;52.288;6.056;2024-02-15T10:02:41;1.90;;;1.13;;
69750;SDS011;57335;52.288;6.056;2024-02-15T10:05:11;3.53;;;1.52;;
69750;SDS011;57335;52.288;6.056;2024-02-15T10:07:39;2.85;;;1.23;;
69750;SDS011;57335;52.288;6.056;2024-02-15T10:10:19;3.70;;;1.33;;
69750;SDS011;57335;52.288;6.056;2024-02-15T10:12:47;4.95;;;1.60;;
69750;SDS011;57335;52.288;6.056;2024-02-15T10:15:36;3.83;;;1.50;;
69750;SDS011;57335;52.288;6.056;2024-02-15T10:18:05;3.97;;;1.33;;
69750;SDS011;57335;52.288;6.056;2024-02-15T10:20:35;4.57;;;1.58;;
69750;SDS011;57335;52.288;6.056;2024-02-15T10:25:36;5.60;;;1.60;;
69750;SDS011;57335;52.288;6.056;2024-02-15T10:28:03;4.38;;;1.63;;
69750;SDS011;57335;52.288;6.056;2024-02-15T10:30:37;3.72;;;1.40;;
69750;SDS011;57335;52.288;6.056;2024-02-15T10:33:19;4.60;;;1.70;;
69750;SDS011;57335;52.288;6.056;2024-02-15T10:36:05;5.22;;;1.52;;
69750;SDS011;57335;52.288;6.056;2024-02-15T10:38:34;5.53;;;1.83;;
69750;SDS011;57335;52.288;6.056;2024-02-15T10:41:02;4.47;;;1.60;;
69750;SDS011;57335;52.288;6.056;2024-02-15T10:43:33;4.78;;;1.80;;
69750;SDS011;57335;52.288;6.056;2024-02-15T10:46:00;7.65;;;2.30;;
69750;SDS011;57335;52.288;6.056;2024-02-15T10:48:27;6.18;;;1.83;;
69750;SDS011;57335;52.288;6.056;2024-02-15T10:50:56;4.72;;;1.80;;
69750;SDS011;57335;52.288;6.056;2024-02-15T10:53:28;5.57;;;1.98;;
69750;SDS011;57335;52.288;6.056;2024-02-15T10:55:59;5.18;;;2.00;;
69750;SDS011;57335;52.288;6.056;2024-02-15T10:58:47;6.97;;;2.38;;
69750;SDS011;57335;52.288;6.056;2024-02-15T11:01:17;5.75;;;2.13;;
69750;SDS011;57335;52.288;6.056;2024-02-15T11:03:48;5.20;;;1.90;;
69750;SDS011;57335;52.288;6.056;2024-02-15T11:06:19;6.97;;;2.10;;
69750;SDS011;57335;52.288;6.056;2024-02-15T11:08:48;6.75;;;2.30;;
69750;SDS011;57335;52.288;6.056;2024-02-15T11:11:15;7.43;;;2.92;;
69750;SDS011;57335;52.288;6.056;2024-02-15T11:13:42;7.45;;;2.60;;
69750;SDS011;57335;52.288;6.056;2024-02-15T11:16:20;10.63;;;3.22;;
69750;SDS011;57335;52.288;6.056;2024-02-15T11:19:10;10.07;;;3.03;;
69750;SDS011;57335;52.288;6.056;2024-02-15T11:21:53;6.05;;;2.10;;
69750;SDS011;57335;52.288;6.056;2024-02-15T11:24:30;7.55;;;2.88;;
69750;SDS011;57335;52.288;6.056;2024-02-15T11:27:04;10.10;;;3.38;;
69750;SDS011;57335;52.288;6.056;2024-02-15T11:35:07;9.48;;;3.20;;
69750;SDS011;57335;52.288;6.056;2024-02-15T11:40:18;11.57;;;3.85;;
69750;SDS011;57335;52.288;6.056;2024-02-15T11:42:58;10.20;;;3.67;;
69750;SDS011;57335;52.288;6.056;2024-02-15T11:45:27;7.63;;;3.00;;
69750;SDS011;57335;52.288;6.056;2024-02-15T11:48:00;8.20;;;3.10;;
69750;SDS011;57335;52.288;6.056;2024-02-15T11:50:30;12.52;;;4.32;;
69750;SDS011;57335;52.288;6.056;2024-02-15T11:53:02;8.43;;;2.97;;
69750;SDS011;57335;52.288;6.056;2024-02-15T11:55:38;8.75;;;3.35;;
69750;SDS011;57335;52.288;6.056;2024-02-15T11:58:07;10.52;;;4.00;;
69750;SDS011;57335;52.288;6.056;2024-02-15T12:00:34;10.13;;;4.07;;
69750;SDS011;57335;52.288;6.056;2024-02-15T12:03:20;10.13;;;4.05;;
69750;SDS011;57335;52.288;6.056;2024-02-15T12:06:21;9.25;;;4.20;;
69750;SDS011;57335;52.288;6.056;2024-02-15T12:09:07;8.85;;;3.85;;
69750;SDS011;57335;52.288;6.056;2024-02-15T12:11:57;9.38;;;3.80;;
69750;SDS011;57335;52.288;6.056;2024-02-15T12:14:43;10.30;;;3.97;;
69750;SDS011;57335;52.288;6.056;2024-02-15T12:17:29;11.50;;;3.45;;
69750;SDS011;57335;52.288;6.056;2024-02-15T12:20:14;8.70;;;3.08;;
69750;SDS011;57335;52.288;6.056;2024-02-15T12:22:42;11.82;;;3.00;;
69750;SDS011;57335;52.288;6.056;2024-02-15T12:25:15;8.95;;;2.92;;
69750;SDS011;57335;52.288;6.056;2024-02-15T12:27:43;9.75;;;3.58;;
69750;SDS011;57335;52.288;6.056;2024-02-15T12:30:14;9.35;;;4.05;;
69750;SDS011;57335;52.288;6.056;2024-02-15T12:32:42;8.77;;;3.38;;
69750;SDS011;57335;52.288;6.056;2024-02-15T12:35:13;8.77;;;3.83;;
69750;SDS011;57335;52.288;6.056;2024-02-15T12:37:46;12.70;;;3.80;;
69750;SDS011;57335;52.288;6.056;2024-02-15T12:40:17;9.55;;;3.65;;
69750;SDS011;57335;52.288;6.056;2024-02-15T12:42:44;9.57;;;4.15;;
69750;SDS011;57335;52.288;6.056;2024-02-15T12:45:20;7.63;;;2.95;;
69750;SDS011;57335;52.288;6.056;2024-02-15T12:47:51;9.57;;;3.20;;
69750;SDS011;57335;52.288;6.056;2024-02-15T12:50:19;10.20;;;3.78;;
69750;SDS011;57335;52.288;6.056;2024-02-15T12:52:51;8.70;;;3.08;;
69750;SDS011;57335;52.288;6.056;2024-02-15T12:55:20;10.60;;;4.00;;
69750;SDS011;57335;52.288;6.056;2024-02-15T12:57:52;6.70;;;2.53;;
69750;SDS011;57335;52.288;6.056;2024-02-15T13:00:25;11.95;;;4.18;;
69750;SDS011;57335;52.288;6.056;2024-02-15T13:02:58;8.60;;;3.42;;
69750;SDS011;57335;52.288;6.056;2024-02-15T13:05:26;9.55;;;3.70;;
69750;SDS011;57335;52.288;6.056;2024-02-15T13:07:53;10.30;;;3.70;;
69750;SDS011;57335;52.288;6.056;2024-02-15T13:10:32;10.48;;;4.22;;
69750;SDS011;57335;52.288;6.056;2024-02-15T13:13:02;10.50;;;3.75;;
69750;SDS011;57335;52.288;6.056;2024-02-15T13:15:28;10.68;;;3.70;;
69750;SDS011;57335;52.288;6.056;2024-02-15T13:18:00;9.43;;;3.95;;
69750;SDS011;57335;52.288;6.056;2024-02-15T13:20:31;11.45;;;3.88;;
69750;SDS011;57335;52.288;6.056;2024-02-15T13:23:07;10.57;;;3.28;;
69750;SDS011;57335;52.288;6.056;2024-02-15T13:25:36;9.40;;;3.55;;
69750;SDS011;57335;52.288;6.056;2024-02-15T13:28:07;10.05;;;3.38;;
69750;SDS011;57335;52.288;6.056;2024-02-15T13:30:35;10.85;;;3.60;;
69750;SDS011;57335;52.288;6.056;2024-02-15T13:33:03;12.80;;;2.92;;
69750;SDS011;57335;52.288;6.056;2024-02-15T13:35:30;9.95;;;3.55;;
69750;SDS011;57335;52.288;6.056;2024-02-15T13:37:57;10.15;;;3.10;;
69750;SDS011;57335;52.288;6.056;2024-02-15T13:40:27;10.52;;;3.40;;
69750;SDS011;57335;52.288;6.056;2024-02-15T13:42:59;9.60;;;3.60;;
69750;SDS011;57335;52.288;6.056;2024-02-15T13:45:42;10.85;;;4.18;;
69750;SDS011;57335;52.288;6.056;2024-02-15T13:48:10;10.23;;;4.07;;
69750;SDS011;57335;52.288;6.056;2024-02-15T13:50:41;10.68;;;4.00;;
69750;SDS011;57335;52.288;6.056;2024-02-15T13:53:09;10.00;;;3.75;;
69750;SDS011;57335;52.288;6.056;2024-02-15T13:55:36;9.65;;;3.63;;
69750;SDS011;57335;52.288;6.056;2024-02-15T13:58:03;9.90;;;3.80;;
69750;SDS011;57335;52.288;6.056;2024-02-15T14:00:30;10.60;;;3.40;;
69750;SDS011;57335;52.288;6.056;2024-02-15T14:03:01;11.43;;;3.75;;
69750;SDS011;57335;52.288;6.056;2024-02-15T14:05:29;12.13;;;4.28;;
69750;SDS011;57335;52.288;6.056;2024-02-15T14:07:57;11.98;;;4.10;;
69750;SDS011;57335;52.288;6.056;2024-02-15T14:10:27;16.25;;;4.30;;
69750;SDS011;57335;52.288;6.056;2024-02-15T14:12:55;8.77;;;4.00;;
69750;SDS011;57335;52.288;6.056;2024-02-15T14:15:27;15.27;;;6.43;;
69750;SDS011;57335;52.288;6.056;2024-02-15T14:17:55;8.82;;;3.80;;
69750;SDS011;57335;52.288;6.056;2024-02-15T14:20:23;9.60;;;3.42;;
69750;SDS011;57335;52.288;6.056;2024-02-15T14:22:50;10.45;;;3.80;;
69750;SDS011;57335;52.288;6.056;2024-02-15T14:25:26;13.27;;;4.57;;
69750;SDS011;57335;52.288;6.056;2024-02-15T14:27:54;9.18;;;3.58;;
69750;SDS011;57335;52.288;6.056;2024-02-15T14:30:21;10.18;;;3.80;;
69750;SDS011;57335;52.288;6.056;2024-02-15T14:33:07;10.85;;;3.88;;
69750;SDS011;57335;52.288;6.056;2024-02-15T14:35:48;8.88;;;3.10;;
69750;SDS011;57335;52.288;6.056;2024-02-15T14:38:15;9.63;;;3.42;;
69750;SDS011;57335;52.288;6.056;2024-02-15T14:40:47;8.05;;;3.35;;
69750;SDS011;57335;52.288;6.056;2024-02-15T14:43:20;8.00;;;3.20;;
69750;SDS011;57335;52.288;6.056;2024-02-15T14:45:48;9.45;;;3.45;;
69750;SDS011;57335;52.288;6.056;2024-02-15T14:48:16;9.32;;;3.20;;
69750;SDS011;57335;52.288;6.056;2024-02-15T14:50:45;9.68;;;3.15;;
69750;SDS011;57335;52.288;6.056;2024-02-15T14:53:14;8.98;;;3.30;;
69750;SDS011;57335;52.288;6.056;2024-02-15T14:55:42;9.65;;;3.20;;
69750;SDS011;57335;52.288;6.056;2024-02-15T14:58:12;10.95;;;3.60;;
69750;SDS011;57335;52.288;6.056;2024-02-15T15:00:44;9.30;;;3.05;;
69750;SDS011;57335;52.288;6.056;2024-02-15T15:03:12;10.02;;;3.10;;